createdAt,value
2023-05-19T00:02:20.893Z,6.40
2023-05-19T00:07:30.429Z,6.40
2023-05-19T00:12:32.579Z,6.30
2023-05-19T00:17:34.627Z,6.20
2023-05-19T00:22:37.079Z,6.10
2023-05-19T00:27:38.847Z,6.00
2023-05-19T00:32:40.735Z,5.90
2023-05-19T00:37:42.601Z,5.90
2023-05-19T00:42:44.470Z,5.90
2023-05-19T00:47:46.384Z,5.80
2023-05-19T00:52:48.199Z,5.80
2023-05-19T00:57:50.390Z,5.80
2023-05-19T01:02:52.449Z,5.60
2023-05-19T01:07:56.495Z,5.70
2023-05-19T01:12:58.444Z,5.70
2023-05-19T01:18:16.760Z,5.70
2023-05-19T01:23:51.926Z,5.70
2023-05-19T01:29:02.780Z,5.60
2023-05-19T01:34:05.766Z,5.60
2023-05-19T01:39:07.959Z,5.60
2023-05-19T01:44:10.961Z,5.50
2023-05-19T01:49:13.771Z,5.40
2023-05-19T01:54:15.631Z,5.40
2023-05-19T01:59:34.280Z,5.30
2023-05-19T02:04:54.987Z,5.20
2023-05-19T02:10:06.653Z,5.20
2023-05-19T02:15:21.499Z,5.20
2023-05-19T02:20:23.455Z,5.30
2023-05-19T02:25:25.355Z,5.30
2023-05-19T02:30:27.221Z,5.30
2023-05-19T02:35:29.100Z,5.30
2023-05-19T02:40:31.174Z,5.30
2023-05-19T02:45:33.155Z,5.20
2023-05-19T02:50:34.892Z,5.30
2023-05-19T02:55:36.653Z,5.40
2023-05-19T03:00:38.410Z,5.50
2023-05-19T03:05:40.836Z,5.60
2023-05-19T03:10:42.578Z,5.70
2023-05-19T03:15:45.053Z,5.80
2023-05-19T03:20:46.894Z,5.90
2023-05-19T03:25:48.856Z,6.10
2023-05-19T03:30:51.027Z,6.40
2023-05-19T03:35:53.082Z,6.60
2023-05-19T03:40:54.920Z,6.80
2023-05-19T03:45:57.908Z,7.50
2023-05-19T03:50:59.795Z,10.10
2023-05-19T03:56:01.671Z,11.60
2023-05-19T04:01:03.496Z,11.40
2023-05-19T04:06:05.464Z,11.20
2023-05-19T04:11:07.369Z,10.80
2023-05-19T04:16:09.280Z,11.50
2023-05-19T04:21:11.246Z,12.70
2023-05-19T04:26:14.963Z,13.40
2023-05-19T04:31:16.739Z,12.40
2023-05-19T04:36:21.470Z,11.60
2023-05-19T04:41:23.248Z,11.10
2023-05-19T04:46:26.261Z,11.00
2023-05-19T04:51:31.307Z,11.20
2023-05-19T04:56:33.349Z,11.10
2023-05-19T05:01:35.489Z,11.00
2023-05-19T05:06:38.466Z,11.40
2023-05-19T05:11:40.617Z,12.50
2023-05-19T05:16:43.589Z,12.90
2023-05-19T05:21:46.112Z,12.70
2023-05-19T05:26:48.179Z,13.70
2023-05-19T05:31:49.959Z,13.50
2023-05-19T05:36:51.700Z,12.80
2023-05-19T05:41:53.444Z,12.80
2023-05-19T05:46:55.705Z,14.40
2023-05-19T05:52:05.816Z,14.90
2023-05-19T05:57:10.748Z,19.50
2023-05-19T06:02:12.725Z,22.70
2023-05-19T06:07:14.718Z,24.80
2023-05-19T06:12:16.493Z,22.50
2023-05-19T06:17:18.279Z,19.80
2023-05-19T06:22:20.124Z,18.60
2023-05-19T06:27:21.876Z,17.20
2023-05-19T06:32:23.726Z,15.60
2023-05-19T06:37:25.723Z,15.90
2023-05-19T06:42:27.543Z,18.80
2023-05-19T06:47:29.391Z,21.30
2023-05-19T06:52:31.263Z,25.80
2023-05-19T06:57:33.143Z,27.70
2023-05-19T07:02:35.117Z,28.20
2023-05-19T07:07:36.923Z,29.30
2023-05-19T07:12:38.708Z,30.60
2023-05-19T07:17:40.486Z,29.90
2023-05-19T07:22:42.446Z,30.90
2023-05-19T07:27:45.660Z,29.90
2023-05-19T07:32:47.476Z,30.60
2023-05-19T07:37:49.947Z,32.30
2023-05-19T07:42:51.757Z,31.50
2023-05-19T07:47:54.268Z,32.70
2023-05-19T07:52:56.552Z,30.70
2023-05-19T07:57:58.450Z,29.40
2023-05-19T08:03:00.368Z,31.40
2023-05-19T08:08:02.823Z,31.70
2023-05-19T08:13:05.241Z,32.20
2023-05-19T08:18:07.147Z,31.80
2023-05-19T08:23:09.150Z,33.60
2023-05-19T08:28:11.251Z,33.00
2023-05-19T08:33:13.176Z,31.50
2023-05-19T08:38:14.994Z,31.60
2023-05-19T08:43:16.888Z,30.50
2023-05-19T08:48:19.583Z,30.90
2023-05-19T08:53:33.977Z,32.20
2023-05-19T08:58:39.546Z,30.60
2023-05-19T09:03:42.674Z,31.80
2023-05-19T09:08:45.223Z,28.30
2023-05-19T09:13:47.032Z,29.50
2023-05-19T09:18:56.870Z,29.90
2023-05-19T09:24:09.450Z,30.50
2023-05-19T09:29:12.886Z,30.50
2023-05-19T09:34:14.803Z,30.50
2023-05-19T09:39:18.036Z,31.60
2023-05-19T09:44:23.887Z,29.70
2023-05-19T09:49:30.253Z,27.20
2023-05-19T09:54:34.367Z,27.40
2023-05-19T09:59:38.918Z,26.70
2023-05-19T10:04:42.397Z,27.30
2023-05-19T10:09:45.249Z,26.20
2023-05-19T10:14:48.832Z,25.40
2023-05-19T10:19:52.330Z,22.90
2023-05-19T10:24:56.149Z,21.80
2023-05-19T10:30:01.570Z,19.80
2023-05-19T10:35:32.354Z,19.30
2023-05-19T10:40:38.923Z,19.10
2023-05-19T10:45:51.766Z,19.20
2023-05-19T10:50:55.265Z,18.80
2023-05-19T10:55:59.049Z,18.50
2023-05-19T11:01:01.612Z,18.50
2023-05-19T11:06:27.332Z,17.60
2023-05-19T11:11:46.713Z,17.80
2023-05-19T11:16:59.267Z,18.10
2023-05-19T11:22:13.583Z,17.70
2023-05-19T11:27:35.808Z,17.50
2023-05-19T11:32:39.415Z,17.20
2023-05-19T11:37:43.013Z,17.40
2023-05-19T11:42:45.301Z,17.30
2023-05-19T11:48:01.360Z,17.20
2023-05-19T11:53:04.703Z,17.70
2023-05-19T11:58:07.018Z,17.70
2023-05-19T12:03:09.444Z,17.70
2023-05-19T12:08:12.354Z,17.20
2023-05-19T12:13:15.053Z,16.50
2023-05-19T12:18:16.805Z,17.10
2023-05-19T12:23:18.930Z,17.50
2023-05-19T12:28:21.359Z,17.50
2023-05-19T12:33:24.417Z,18.10
2023-05-19T12:38:26.371Z,17.70
2023-05-19T12:43:28.481Z,17.40
2023-05-19T12:48:30.222Z,17.20
2023-05-19T12:53:33.454Z,17.20
2023-05-19T12:58:35.248Z,17.30
2023-05-19T13:03:43.865Z,17.00
2023-05-19T13:08:47.312Z,17.00
2023-05-19T13:13:49.050Z,16.70
2023-05-19T13:18:51.580Z,16.70
2023-05-19T13:23:53.442Z,16.70
2023-05-19T13:28:55.388Z,16.80
2023-05-19T13:33:57.399Z,16.30
2023-05-19T13:39:00.762Z,16.40
2023-05-19T13:44:02.525Z,16.40
2023-05-19T13:49:04.258Z,16.20
2023-05-19T13:54:06.027Z,16.10
2023-05-19T13:59:07.891Z,16.10
2023-05-19T14:04:10.768Z,16.10
2023-05-19T14:09:13.245Z,16.10
2023-05-19T14:14:15.083Z,16.50
2023-05-19T14:19:16.988Z,16.00
2023-05-19T14:24:20.158Z,16.00
2023-05-19T14:29:22.065Z,16.00
2023-05-19T14:34:23.912Z,15.50
2023-05-19T14:39:25.906Z,15.40
2023-05-19T14:44:31.914Z,15.50
2023-05-19T14:49:33.683Z,15.50
2023-05-19T14:54:35.603Z,15.30
2023-05-19T14:59:38.066Z,15.10
2023-05-19T15:04:39.879Z,15.20
2023-05-19T15:09:41.659Z,15.50
2023-05-19T15:14:43.401Z,15.70
2023-05-19T15:19:45.380Z,15.40
2023-05-19T15:24:47.213Z,15.10
2023-05-19T15:29:49.192Z,15.30
2023-05-19T15:34:50.945Z,15.30
2023-05-19T15:39:52.893Z,15.40
2023-05-19T15:44:54.665Z,15.10
2023-05-19T15:49:56.385Z,15.10
2023-05-19T15:54:59.126Z,15.00
2023-05-19T16:00:01.161Z,15.10
2023-05-19T16:05:03.138Z,15.20
2023-05-19T16:10:05.487Z,15.20
2023-05-19T16:15:07.852Z,15.20
2023-05-19T16:20:10.712Z,15.10
2023-05-19T16:25:12.588Z,15.00
2023-05-19T16:30:14.923Z,15.00
2023-05-19T16:35:16.804Z,14.80
2023-05-19T16:40:18.570Z,14.60
2023-05-19T16:45:20.519Z,14.50
2023-05-19T16:50:22.265Z,14.30
2023-05-19T16:55:25.368Z,14.30
2023-05-19T17:00:29.386Z,14.20
2023-05-19T17:05:31.952Z,14.10
2023-05-19T17:10:34.143Z,14.00
2023-05-19T17:15:36.330Z,13.80
2023-05-19T17:20:38.352Z,13.70
2023-05-19T17:25:40.162Z,13.60
2023-05-19T17:30:42.516Z,13.50
2023-05-19T17:35:44.359Z,13.40
2023-05-19T17:40:46.120Z,13.30
2023-05-19T17:45:47.907Z,13.20
2023-05-19T17:50:49.677Z,13.10
2023-05-19T17:56:02.413Z,13.00
2023-05-19T18:01:04.482Z,12.80
2023-05-19T18:06:07.271Z,12.70
2023-05-19T18:11:13.390Z,12.60
2023-05-19T18:16:15.214Z,12.50
2023-05-19T18:21:18.092Z,12.40
2023-05-19T18:26:19.954Z,12.30
2023-05-19T18:31:22.150Z,12.10
2023-05-19T18:36:23.972Z,12.00
2023-05-19T18:41:26.097Z,11.80
2023-05-19T18:46:28.027Z,11.80
2023-05-19T18:51:30.055Z,11.60
2023-05-19T18:56:33.305Z,11.40
2023-05-19T19:01:35.207Z,11.40
2023-05-19T19:06:37.015Z,11.20
2023-05-19T19:11:38.865Z,11.20
2023-05-19T19:16:40.762Z,11.10
2023-05-19T19:21:42.558Z,11.00
2023-05-19T19:26:44.352Z,11.00
2023-05-19T19:31:46.461Z,11.00
2023-05-19T19:36:48.317Z,11.00
2023-05-19T19:41:50.145Z,11.20
2023-05-19T19:46:52.223Z,11.20
2023-05-19T19:51:54.204Z,11.10
2023-05-19T19:56:56.146Z,11.00
2023-05-19T20:01:58.160Z,11.00
2023-05-19T20:07:00.210Z,11.10
2023-05-19T20:12:02.061Z,11.00
2023-05-19T20:17:04.334Z,10.90
2023-05-19T20:22:06.130Z,10.90
2023-05-19T20:27:08.009Z,10.90
2023-05-19T20:32:09.933Z,10.70
2023-05-19T20:37:11.741Z,10.60
2023-05-19T20:42:13.743Z,10.50
2023-05-19T20:47:15.690Z,10.40
2023-05-19T20:52:17.998Z,10.40
2023-05-19T20:57:19.776Z,10.30
2023-05-19T21:02:21.580Z,10.20
2023-05-19T21:07:23.457Z,10.00
2023-05-19T21:12:28.521Z,9.80
2023-05-19T21:17:30.367Z,9.60
2023-05-19T21:22:32.268Z,9.50
2023-05-19T21:27:35.556Z,9.40
2023-05-19T21:32:37.513Z,9.40
2023-05-19T21:37:39.273Z,9.30
2023-05-19T21:42:41.074Z,9.20
2023-05-19T21:47:42.846Z,9.20
2023-05-19T21:52:44.685Z,9.10
2023-05-19T21:57:46.426Z,9.10
2023-05-19T22:02:48.227Z,9.00
2023-05-19T22:07:50.037Z,9.00
2023-05-19T22:12:51.955Z,8.90
2023-05-19T22:17:53.805Z,8.90
2023-05-19T22:22:55.919Z,8.90
2023-05-19T22:27:57.939Z,8.80
2023-05-19T22:32:59.844Z,8.70
2023-05-19T22:38:01.649Z,8.70
2023-05-19T22:43:03.510Z,8.60
2023-05-19T22:48:05.667Z,8.50
2023-05-19T22:53:07.469Z,8.40
2023-05-19T22:58:09.270Z,8.40
2023-05-19T23:03:11.510Z,8.40
2023-05-19T23:08:13.282Z,8.50
2023-05-19T23:13:15.549Z,8.50
2023-05-19T23:18:17.297Z,8.50
2023-05-19T23:23:19.522Z,8.40
2023-05-19T23:28:21.315Z,8.30
2023-05-19T23:33:23.414Z,8.20
2023-05-19T23:38:25.629Z,8.10
2023-05-19T23:43:27.511Z,8.10
2023-05-19T23:48:29.679Z,8.10
2023-05-19T23:53:31.641Z,8.00
2023-05-19T23:58:33.478Z,8.00
